Time;durP1;ratioP1;P1;durP2;ratioP2;P2;SDS_P1;SDS_P2;PMS_P1;PMS_P2;Temp;Humidity;BMP_temperature;BMP_pressure;BME280_temperature;BME280_humidity;BME280_pressure;Samples;Min_cycle;Max_cycle;Signal;HPM_P1;HPM_P2
2022/05/04 00:00:14;;;;;;;11.02;5.25;;;;;;;;;;5007795;28;20034;-69
2022/05/04 00:02:40;;;;;;;10.77;6.03;;;;;;;;;;5025464;28;20427;-71
2022/05/04 00:05:05;;;;;;;12.98;5.30;;;;;;;;;;5023235;28;20026;-69
2022/05/04 00:07:31;;;;;;;10.70;5.05;;;;;;;;;;5019539;28;20337;-70
2022/05/04 00:09:57;;;;;;;10.63;5.47;;;;;;;;;;5020722;28;20075;-70
2022/05/04 00:12:23;;;;;;;10.45;5.07;;;;;;;;;;5009109;28;20771;-69
2022/05/04 00:14:48;;;;;;;10.55;5.40;;;;;;;;;;5016571;28;20022;-69
2022/05/04 00:17:14;;;;;;;9.13;5.60;;;;;;;;;;5017661;28;20055;-69
2022/05/04 00:19:39;;;;;;;9.38;5.10;;;;;;;;;;5006092;28;20044;-70
2022/05/04 00:22:04;;;;;;;11.00;5.00;;;;;;;;;;5022680;28;20029;-70
2022/05/04 00:24:30;;;;;;;9.80;5.35;;;;;;;;;;5023834;28;20045;-70
2022/05/04 00:26:55;;;;;;;10.80;4.82;;;;;;;;;;5026170;28;20103;-68
2022/05/04 00:29:20;;;;;;;9.70;4.70;;;;;;;;;;5004759;28;20079;-70
2022/05/04 00:31:46;;;;;;;10.40;4.80;;;;;;;;;;5005770;28;20111;-70
2022/05/04 00:34:11;;;;;;;7.57;4.45;;;;;;;;;;5026421;28;20456;-70
2022/05/04 00:36:36;;;;;;;10.93;5.22;;;;;;;;;;5020435;28;20034;-69
2022/05/04 00:39:01;;;;;;;11.13;4.70;;;;;;;;;;5005629;28;20353;-70
2022/05/04 00:41:27;;;;;;;7.95;4.55;;;;;;;;;;5023211;28;20056;-70
2022/05/04 00:43:53;;;;;;;8.13;4.80;;;;;;;;;;5024980;28;20104;-69
2022/05/04 00:46:18;;;;;;;11.70;5.15;;;;;;;;;;5022518;28;20411;-70
2022/05/04 00:48:43;;;;;;;10.32;5.63;;;;;;;;;;5023626;28;20049;-70
2022/05/04 00:51:09;;;;;;;10.90;5.38;;;;;;;;;;5026437;28;20032;-70
2022/05/04 00:53:34;;;;;;;12.82;5.38;;;;;;;;;;5024989;28;20041;-70
2022/05/04 00:56:02;;;;;;;12.32;5.18;;;;;;;;;;5025984;28;20029;-68
2022/05/04 01:01:15;;;;;;;10.40;4.63;;;;;;;;;;5023960;28;20120;-70
2022/05/04 01:03:40;;;;;;;11.48;4.97;;;;;;;;;;5012297;28;20486;-70
2022/05/04 01:06:05;;;;;;;9.15;4.80;;;;;;;;;;5025092;28;20029;-70
2022/05/04 01:08:30;;;;;;;11.55;5.45;;;;;;;;;;5026128;28;20098;-69
2022/05/04 01:10:56;;;;;;;10.02;5.45;;;;;;;;;;5024431;28;20033;-70
2022/05/04 01:13:21;;;;;;;9.48;5.32;;;;;;;;;;5024871;28;20045;-69
2022/05/04 01:15:47;;;;;;;12.10;5.40;;;;;;;;;;5021846;28;20029;-68
2022/05/04 01:18:13;;;;;;;10.48;4.97;;;;;;;;;;5022385;28;20053;-71
2022/05/04 01:20:38;;;;;;;12.32;5.68;;;;;;;;;;5021611;28;20789;-70
2022/05/04 01:23:03;;;;;;;7.05;4.75;;;;;;;;;;5025332;28;20041;-70
2022/05/04 01:25:29;;;;;;;7.45;5.07;;;;;;;;;;5023047;28;20041;-70
2022/05/04 01:27:55;;;;;;;10.55;5.38;;;;;;;;;;5024376;28;20048;-69
2022/05/04 01:30:21;;;;;;;13.35;5.30;;;;;;;;;;5021749;28;20096;-69
2022/05/04 01:32:47;;;;;;;12.90;5.60;;;;;;;;;;5005015;28;20033;-70
2022/05/04 01:35:13;;;;;;;8.20;5.63;;;;;;;;;;5022331;28;20535;-70
2022/05/04 01:37:38;;;;;;;10.20;5.60;;;;;;;;;;5006350;28;20594;-71
2022/05/04 01:40:04;;;;;;;9.10;5.32;;;;;;;;;;5024459;28;20025;-68
2022/05/04 01:42:29;;;;;;;12.27;5.82;;;;;;;;;;5005438;28;20056;-69
2022/05/04 01:44:54;;;;;;;10.30;5.20;;;;;;;;;;5020993;28;20044;-69
2022/05/04 01:47:20;;;;;;;9.50;5.40;;;;;;;;;;5021485;28;20029;-69
2022/05/04 01:49:46;;;;;;;11.90;6.05;;;;;;;;;;5004346;28;20036;-70
2022/05/04 01:52:11;;;;;;;9.68;5.70;;;;;;;;;;5020437;28;20025;-69
2022/05/04 01:54:36;;;;;;;10.80;5.53;;;;;;;;;;5022866;28;20671;-70
2022/05/04 01:57:01;;;;;;;11.02;5.45;;;;;;;;;;5022060;28;20018;-71
2022/05/04 01:59:27;;;;;;;11.60;5.80;;;;;;;;;;5018726;28;20310;-70
2022/05/04 02:01:52;;;;;;;10.50;5.72;;;;;;;;;;5026623;28;20022;-70
2022/05/04 02:04:17;;;;;;;11.45;5.20;;;;;;;;;;5024319;28;20488;-71
2022/05/04 02:06:43;;;;;;;10.90;6.07;;;;;;;;;;5018699;28;20060;-70
2022/05/04 02:09:08;;;;;;;10.95;6.30;;;;;;;;;;5026926;28;20018;-70
2022/05/04 02:11:35;;;;;;;9.70;5.75;;;;;;;;;;5020615;28;20321;-70
2022/05/04 02:14:01;;;;;;;8.05;5.90;;;;;;;;;;5023065;28;20028;-69
2022/05/04 02:16:26;;;;;;;11.45;6.05;;;;;;;;;;5020371;28;20013;-70
2022/05/04 02:18:51;;;;;;;9.88;6.10;;;;;;;;;;5021611;28;20021;-71
2022/05/04 02:21:17;;;;;;;12.45;5.78;;;;;;;;;;5003267;28;20051;-69
2022/05/04 02:23:43;;;;;;;11.02;5.78;;;;;;;;;;5021220;28;20736;-70
2022/05/04 02:26:08;;;;;;;15.05;6.25;;;;;;;;;;5022355;28;20022;-71
2022/05/04 02:28:33;;;;;;;10.40;6.00;;;;;;;;;;5020673;28;20061;-70
2022/05/04 02:30:59;;;;;;;10.32;5.53;;;;;;;;;;5021896;28;20021;-72
2022/05/04 02:33:26;;;;;;;11.10;6.20;;;;;;;;;;5020636;28;20490;-70
2022/05/04 02:38:35;;;;;;;10.60;5.65;;;;;;;;;;5021734;28;20067;-71
2022/05/04 02:41:00;;;;;;;13.25;6.10;;;;;;;;;;5024054;28;20021;-71
2022/05/04 02:43:28;;;;;;;13.70;6.38;;;;;;;;;;5020818;28;20018;-71
2022/05/04 02:45:53;;;;;;;9.77;6.60;;;;;;;;;;5018946;28;20500;-70
2022/05/04 02:48:18;;;;;;;15.00;6.63;;;;;;;;;;5020279;28;20021;-71
2022/05/04 02:50:44;;;;;;;9.90;5.68;;;;;;;;;;5018769;28;20280;-70
2022/05/04 02:53:09;;;;;;;13.88;6.03;;;;;;;;;;5023247;28;20026;-69
2022/05/04 02:55:34;;;;;;;9.77;6.25;;;;;;;;;;5021297;28;20041;-70
2022/05/04 02:58:00;;;;;;;10.02;6.82;;;;;;;;;;5025079;28;20018;-70
2022/05/04 03:00:26;;;;;;;9.82;5.95;;;;;;;;;;5021413;28;20029;-69
2022/05/04 03:02:53;;;;;;;11.68;6.43;;;;;;;;;;5020500;28;20044;-70
2022/05/04 03:05:19;;;;;;;12.25;6.88;;;;;;;;;;5004157;28;20047;-70
2022/05/04 03:07:44;;;;;;;12.52;7.05;;;;;;;;;;5022780;28;20674;-71
2022/05/04 03:10:09;;;;;;;11.73;6.45;;;;;;;;;;5022444;28;20029;-70
2022/05/04 03:12:34;;;;;;;10.73;6.70;;;;;;;;;;5021915;28;20472;-70
2022/05/04 03:15:00;;;;;;;9.95;6.68;;;;;;;;;;5003668;28;20025;-71
2022/05/04 03:17:26;;;;;;;9.40;6.18;;;;;;;;;;5022453;28;20234;-70
2022/05/04 03:19:54;;;;;;;13.35;6.78;;;;;;;;;;5006127;28;20026;-71
2022/05/04 03:22:21;;;;;;;9.45;6.70;;;;;;;;;;5019907;28;20022;-70
2022/05/04 03:24:46;;;;;;;10.88;6.35;;;;;;;;;;5005489;28;20649;-70
2022/05/04 03:27:12;;;;;;;11.15;6.60;;;;;;;;;;5025420;28;20204;-70
2022/05/04 03:29:37;;;;;;;9.70;6.30;;;;;;;;;;5019446;28;20041;-70
2022/05/04 03:32:05;;;;;;;10.40;5.95;;;;;;;;;;5022727;28;20033;-70
2022/05/04 03:34:31;;;;;;;12.57;6.47;;;;;;;;;;5022405;28;20056;-69
2022/05/04 03:36:58;;;;;;;9.93;6.03;;;;;;;;;;5003840;28;20025;-69
2022/05/04 03:39:23;;;;;;;9.70;6.40;;;;;;;;;;5020573;28;20030;-70
2022/05/04 03:41:49;;;;;;;12.68;6.80;;;;;;;;;;5003977;28;20030;-71
2022/05/04 03:44:14;;;;;;;12.90;6.55;;;;;;;;;;5021611;28;20040;-71
2022/05/04 03:46:46;;;;;;;8.55;6.20;;;;;;;;;;5002721;28;20037;-70
2022/05/04 03:49:12;;;;;;;12.43;6.70;;;;;;;;;;5004517;28;20471;-69
2022/05/04 03:51:37;;;;;;;10.35;7.10;;;;;;;;;;5002987;28;20322;-70
2022/05/04 03:54:03;;;;;;;12.20;6.55;;;;;;;;;;5025691;28;20041;-69
2022/05/04 03:56:29;;;;;;;10.13;6.80;;;;;;;;;;5024204;28;20027;-70
2022/05/04 03:58:55;;;;;;;12.95;6.90;;;;;;;;;;5028246;28;20049;-71
2022/05/04 04:01:20;;;;;;;11.30;6.78;;;;;;;;;;5028656;28;20129;-71
2022/05/04 04:03:46;;;;;;;10.35;6.32;;;;;;;;;;5022416;28;20056;-70
2022/05/04 04:06:12;;;;;;;13.65;7.03;;;;;;;;;;5006094;28;20341;-70
2022/05/04 04:08:37;;;;;;;10.35;6.00;;;;;;;;;;5024816;28;20025;-71
2022/05/04 04:11:03;;;;;;;11.00;6.80;;;;;;;;;;5024613;28;20025;-71
2022/05/04 04:13:29;;;;;;;10.05;6.97;;;;;;;;;;5025758;28;20095;-70
2022/05/04 04:15:55;;;;;;;10.88;6.88;;;;;;;;;;5006163;28;20022;-71
2022/05/04 04:18:21;;;;;;;12.35;6.63;;;;;;;;;;5022807;28;20746;-70
2022/05/04 04:23:32;;;;;;;12.07;7.22;;;;;;;;;;5023783;28;20053;-69
2022/05/04 04:26:00;;;;;;;11.52;6.78;;;;;;;;;;5008030;28;20069;-71
2022/05/04 04:28:25;;;;;;;11.05;6.85;;;;;;;;;;5025679;28;20053;-69
2022/05/04 04:30:51;;;;;;;12.30;6.95;;;;;;;;;;5024746;28;20021;-69
2022/05/04 04:33:16;;;;;;;10.43;6.88;;;;;;;;;;5028864;28;20029;-70
2022/05/04 04:35:41;;;;;;;10.82;6.70;;;;;;;;;;5022323;28;20041;-70
2022/05/04 04:38:07;;;;;;;11.43;7.10;;;;;;;;;;5024455;28;20663;-70
2022/05/04 04:40:33;;;;;;;12.45;7.20;;;;;;;;;;5023379;28;20083;-70
2022/05/04 04:43:02;;;;;;;13.75;7.60;;;;;;;;;;5025148;28;20067;-70
2022/05/04 04:45:27;;;;;;;12.45;7.35;;;;;;;;;;5022744;28;20029;-70
2022/05/04 04:47:53;;;;;;;10.85;7.07;;;;;;;;;;5022680;28;20037;-70
2022/05/04 04:50:18;;;;;;;10.32;7.38;;;;;;;;;;5022543;28;20152;-70
2022/05/04 04:52:43;;;;;;;10.73;6.60;;;;;;;;;;5007620;28;20044;-69
2022/05/04 04:55:08;;;;;;;9.52;6.55;;;;;;;;;;5025504;28;20021;-71
2022/05/04 04:57:36;;;;;;;11.77;7.88;;;;;;;;;;5025358;28;20028;-69
2022/05/04 05:00:03;;;;;;;12.95;7.82;;;;;;;;;;5011667;28;20079;-70
2022/05/04 05:02:28;;;;;;;14.18;7.57;;;;;;;;;;5023046;28;20156;-70
2022/05/04 05:04:55;;;;;;;14.68;7.78;;;;;;;;;;5023569;28;20358;-72
2022/05/04 05:07:21;;;;;;;11.77;7.70;;;;;;;;;;5007937;28;20060;-70
2022/05/04 05:09:46;;;;;;;11.30;7.85;;;;;;;;;;5007760;28;20061;-69
2022/05/04 05:12:12;;;;;;;14.18;7.45;;;;;;;;;;5027657;28;20021;-70
2022/05/04 05:17:22;;;;;;;12.40;7.47;;;;;;;;;;5023840;28;20176;-69
2022/05/04 05:19:47;;;;;;;14.95;8.65;;;;;;;;;;5006135;28;20335;-70
2022/05/04 05:22:12;;;;;;;14.80;8.52;;;;;;;;;;5019870;28;20056;-70
2022/05/04 05:24:38;;;;;;;15.57;8.75;;;;;;;;;;5023677;28;20065;-70
2022/05/04 05:27:04;;;;;;;15.68;8.18;;;;;;;;;;5006906;28;20037;-70
2022/05/04 05:29:29;;;;;;;12.13;8.77;;;;;;;;;;5022261;28;20033;-69
2022/05/04 05:31:54;;;;;;;15.50;8.52;;;;;;;;;;5022729;28;20551;-69
2022/05/04 05:34:19;;;;;;;14.80;8.80;;;;;;;;;;5021711;28;20503;-71
2022/05/04 05:36:45;;;;;;;13.93;8.23;;;;;;;;;;5021582;28;20041;-70
2022/05/04 05:39:10;;;;;;;11.98;8.50;;;;;;;;;;5008337;28;20032;-69
2022/05/04 05:41:36;;;;;;;13.77;9.98;;;;;;;;;;5023733;28;20465;-69
2022/05/04 05:44:02;;;;;;;16.83;9.00;;;;;;;;;;5022713;28;20079;-70
2022/05/04 05:46:29;;;;;;;11.77;7.65;;;;;;;;;;5020775;28;20568;-70
2022/05/04 05:48:54;;;;;;;14.45;8.65;;;;;;;;;;5021062;28;20052;-69
2022/05/04 05:51:19;;;;;;;12.73;9.00;;;;;;;;;;5020803;28;20381;-69
2022/05/04 05:53:44;;;;;;;16.23;8.65;;;;;;;;;;5020586;28;20101;-71
2022/05/04 05:56:10;;;;;;;13.32;8.15;;;;;;;;;;5023944;28;20288;-70
2022/05/04 05:58:36;;;;;;;14.90;8.10;;;;;;;;;;5020677;28;20028;-70
2022/05/04 06:01:01;;;;;;;11.18;7.55;;;;;;;;;;5019820;28;20431;-69
2022/05/04 06:03:26;;;;;;;14.48;7.65;;;;;;;;;;5022813;28;20385;-70
2022/05/04 06:05:51;;;;;;;13.40;7.25;;;;;;;;;;5020106;28;20029;-69
2022/05/04 06:08:16;;;;;;;13.68;7.63;;;;;;;;;;5020189;28;20392;-70
2022/05/04 06:10:42;;;;;;;13.20;7.35;;;;;;;;;;5021495;28;20053;-71
2022/05/04 06:13:07;;;;;;;13.45;7.80;;;;;;;;;;5003063;28;20076;-70
2022/05/04 06:15:33;;;;;;;13.35;7.72;;;;;;;;;;5019324;28;20112;-70
2022/05/04 06:18:01;;;;;;;10.20;7.30;;;;;;;;;;5021041;28;20036;-70
2022/05/04 06:20:26;;;;;;;12.60;7.25;;;;;;;;;;5020972;28;20040;-69
2022/05/04 06:22:51;;;;;;;12.57;6.93;;;;;;;;;;5021752;28;20500;-70
2022/05/04 06:25:17;;;;;;;10.75;6.45;;;;;;;;;;5023046;28;20079;-71
2022/05/04 06:27:43;;;;;;;14.32;7.00;;;;;;;;;;5022905;28;20270;-69
2022/05/04 06:35:36;;;;;;;14.55;7.75;;;;;;;;;;5022358;28;20033;-70
2022/05/04 06:38:02;;;;;;;9.30;6.22;;;;;;;;;;5022514;28;20021;-71
2022/05/04 06:40:27;;;;;;;15.95;6.95;;;;;;;;;;5021146;28;20025;-69
2022/05/04 06:42:52;;;;;;;13.38;7.78;;;;;;;;;;5018910;28;20037;-70
2022/05/04 06:45:17;;;;;;;12.68;6.82;;;;;;;;;;5019886;28;20499;-70
2022/05/04 06:47:43;;;;;;;12.77;7.97;;;;;;;;;;5020288;28;20915;-71
2022/05/04 06:50:10;;;;;;;14.38;7.55;;;;;;;;;;5019429;28;20119;-71
2022/05/04 06:52:37;;;;;;;13.00;7.00;;;;;;;;;;5022890;28;20014;-69
2022/05/04 06:55:02;;;;;;;15.05;7.75;;;;;;;;;;5020473;28;20086;-69
2022/05/04 06:57:27;;;;;;;10.82;6.28;;;;;;;;;;5024551;28;20104;-69
2022/05/04 06:59:54;;;;;;;10.40;6.50;;;;;;;;;;5018553;28;20044;-71
2022/05/04 07:02:20;;;;;;;11.00;6.25;;;;;;;;;;5003480;28;20496;-69
2022/05/04 07:04:49;;;;;;;9.57;6.47;;;;;;;;;;5022024;28;20203;-69
2022/05/04 07:07:14;;;;;;;8.00;5.65;;;;;;;;;;5019441;28;20022;-70
2022/05/04 07:09:39;;;;;;;10.80;6.10;;;;;;;;;;5024228;28;20033;-70
2022/05/04 07:12:05;;;;;;;10.38;5.88;;;;;;;;;;5022178;28;20408;-70
2022/05/04 07:14:30;;;;;;;12.05;6.35;;;;;;;;;;5021415;28;20427;-70
2022/05/04 07:16:55;;;;;;;8.77;5.50;;;;;;;;;;5020063;28;20036;-71
2022/05/04 07:19:20;;;;;;;7.70;5.30;;;;;;;;;;5021123;28;20116;-70
2022/05/04 07:21:47;;;;;;;7.47;5.82;;;;;;;;;;5022076;28;20101;-70
2022/05/04 07:24:13;;;;;;;6.68;5.75;;;;;;;;;;5023474;28;20102;-71
2022/05/04 07:26:39;;;;;;;11.77;6.10;;;;;;;;;;5024984;28;20108;-69
2022/05/04 07:29:05;;;;;;;11.30;5.13;;;;;;;;;;5023356;28;20021;-71
2022/05/04 07:31:31;;;;;;;10.60;5.28;;;;;;;;;;5023626;28;20399;-69
2022/05/04 07:33:56;;;;;;;10.48;5.60;;;;;;;;;;5023856;28;20030;-71
2022/05/04 07:36:21;;;;;;;10.18;5.65;;;;;;;;;;5025110;28;20026;-70
2022/05/04 07:38:56;;;;;;;9.65;5.65;;;;;;;;;;5024277;28;20025;-70
2022/05/04 07:44:08;;;;;;;9.68;5.85;;;;;;;;;;5025356;28;20569;-69
2022/05/04 07:46:34;;;;;;;7.55;5.75;;;;;;;;;;5027126;28;20044;-69
2022/05/04 07:49:00;;;;;;;8.38;5.78;;;;;;;;;;5023536;28;20033;-69
2022/05/04 07:51:25;;;;;;;11.00;5.50;;;;;;;;;;5024597;28;20033;-70
2022/05/04 07:53:52;;;;;;;9.43;5.05;;;;;;;;;;5025974;28;20029;-70
2022/05/04 07:56:17;;;;;;;8.98;4.47;;;;;;;;;;5007851;28;20213;-70
2022/05/04 07:58:43;;;;;;;11.25;5.30;;;;;;;;;;5007278;28;20017;-71
2022/05/04 08:06:36;;;;;;;7.65;4.82;;;;;;;;;;5024678;28;20060;-69
2022/05/04 08:09:02;;;;;;;10.07;5.03;;;;;;;;;;5022934;28;20345;-70
2022/05/04 08:11:27;;;;;;;11.68;5.20;;;;;;;;;;5026952;28;20449;-71
2022/05/04 08:13:53;;;;;;;6.20;4.20;;;;;;;;;;5009732;28;20021;-69
2022/05/04 08:16:18;;;;;;;9.02;4.40;;;;;;;;;;5007305;28;20183;-70
2022/05/04 08:18:44;;;;;;;8.15;4.90;;;;;;;;;;5023389;28;20591;-70
2022/05/04 08:21:09;;;;;;;7.60;4.03;;;;;;;;;;5022551;28;20191;-69
2022/05/04 08:23:34;;;;;;;8.45;4.45;;;;;;;;;;5026063;28;20041;-70
2022/05/04 08:26:01;;;;;;;13.52;4.47;;;;;;;;;;5025146;28;20097;-70
2022/05/04 08:28:26;;;;;;;7.55;4.45;;;;;;;;;;5025857;28;20031;-69
2022/05/04 08:30:52;;;;;;;10.93;4.80;;;;;;;;;;5025566;28;20049;-69
2022/05/04 08:33:18;;;;;;;11.90;4.78;;;;;;;;;;5006344;28;20120;-70
2022/05/04 08:35:43;;;;;;;9.77;4.82;;;;;;;;;;5026224;28;20167;-70
2022/05/04 08:38:09;;;;;;;8.23;4.85;;;;;;;;;;5024295;28;20021;-69
2022/05/04 08:40:34;;;;;;;10.48;4.28;;;;;;;;;;5023630;28;20037;-71
2022/05/04 08:43:05;;;;;;;9.52;4.47;;;;;;;;;;5022572;28;20025;-71
2022/05/04 08:45:30;;;;;;;11.57;4.40;;;;;;;;;;5022234;28;20112;-71
2022/05/04 08:47:56;;;;;;;10.95;4.72;;;;;;;;;;5022122;28;20436;-71
2022/05/04 08:50:23;;;;;;;7.90;4.18;;;;;;;;;;5022683;28;20447;-69
2022/05/04 08:52:53;;;;;;;6.93;4.38;;;;;;;;;;5023074;28;20033;-70
2022/05/04 08:55:19;;;;;;;7.43;4.18;;;;;;;;;;5023283;28;20443;-71
2022/05/04 08:57:44;;;;;;;6.18;3.95;;;;;;;;;;5024683;28;20494;-71
2022/05/04 09:00:10;;;;;;;6.85;4.13;;;;;;;;;;5002306;28;20687;-69
2022/05/04 09:02:36;;;;;;;9.40;4.82;;;;;;;;;;5022679;28;20033;-70
2022/05/04 09:05:11;;;;;;;7.65;4.47;;;;;;;;;;5019132;28;20029;-72
2022/05/04 09:07:38;;;;;;;6.63;4.13;;;;;;;;;;5023162;28;20041;-70
2022/05/04 09:10:04;;;;;;;10.38;4.60;;;;;;;;;;5021924;28;20024;-70
2022/05/04 09:12:33;;;;;;;7.95;4.30;;;;;;;;;;5006029;28;20025;-70
2022/05/04 09:15:00;;;;;;;6.85;4.30;;;;;;;;;;5020299;28;20032;-71
2022/05/04 09:17:25;;;;;;;8.57;4.47;;;;;;;;;;5014682;28;20460;-70
2022/05/04 09:22:40;;;;;;;8.65;4.10;;;;;;;;;;5019266;28;20036;-70
2022/05/04 09:25:13;;;;;;;9.82;4.50;;;;;;;;;;5021817;28;20041;-70
2022/05/04 09:27:39;;;;;;;6.35;4.07;;;;;;;;;;5019060;28;20029;-69
2022/05/04 09:30:05;;;;;;;7.70;4.22;;;;;;;;;;5002417;28;20533;-69
2022/05/04 09:32:30;;;;;;;6.65;3.65;;;;;;;;;;5022339;28;20021;-69
2022/05/04 09:34:57;;;;;;;7.40;4.10;;;;;;;;;;5021597;28;20075;-70
2022/05/04 09:45:38;;;;;;;7.45;4.10;;;;;;;;;;5022091;28;20091;-69
2022/05/04 09:48:11;;;;;;;9.35;4.30;;;;;;;;;;5019727;28;20448;-69
2022/05/04 09:50:39;;;;;;;5.60;3.80;;;;;;;;;;5022571;28;20776;-70
2022/05/04 09:53:05;;;;;;;9.30;4.50;;;;;;;;;;5021557;28;20032;-69
2022/05/04 09:55:30;;;;;;;11.25;3.47;;;;;;;;;;5019186;28;20395;-68
2022/05/04 09:57:57;;;;;;;7.47;3.42;;;;;;;;;;5022946;28;20021;-69
2022/05/04 10:00:24;;;;;;;10.90;4.30;;;;;;;;;;5018659;28;20055;-70
2022/05/04 10:02:50;;;;;;;7.57;3.60;;;;;;;;;;5022789;28;20388;-71
2022/05/04 10:05:17;;;;;;;11.25;4.25;;;;;;;;;;5018242;28;20021;-69
2022/05/04 10:07:42;;;;;;;5.20;3.58;;;;;;;;;;5021518;28;20488;-69
2022/05/04 10:10:09;;;;;;;6.15;3.28;;;;;;;;;;5023171;28;20123;-68
2022/05/04 10:12:38;;;;;;;4.88;2.80;;;;;;;;;;5025678;28;20029;-69
2022/05/04 10:15:06;;;;;;;9.15;3.83;;;;;;;;;;5018420;28;20088;-69
2022/05/04 10:17:33;;;;;;;6.50;3.28;;;;;;;;;;5023302;28;20018;-70
2022/05/04 10:20:12;;;;;;;8.40;3.38;;;;;;;;;;5017107;28;20028;-70
2022/05/04 10:22:37;;;;;;;8.68;3.50;;;;;;;;;;5021204;28;20065;-68
2022/05/04 10:25:04;;;;;;;9.25;3.78;;;;;;;;;;5021163;28;20091;-71
2022/05/04 10:27:30;;;;;;;8.38;3.47;;;;;;;;;;5022122;28;20025;-68
2022/05/04 10:32:49;;;;;;;7.45;3.60;;;;;;;;;;5024916;28;20067;-69
2022/05/04 10:35:20;;;;;;;5.78;3.28;;;;;;;;;;5017838;28;20347;-69
2022/05/04 10:37:57;;;;;;;7.45;3.63;;;;;;;;;;5022779;28;20021;-69
2022/05/04 10:40:26;;;;;;;8.48;2.83;;;;;;;;;;5019153;28;20476;-70
2022/05/04 10:42:54;;;;;;;6.78;3.55;;;;;;;;;;5024051;28;20017;-70
2022/05/04 10:45:22;;;;;;;7.30;3.67;;;;;;;;;;5019057;28;20022;-69
2022/05/04 10:47:48;;;;;;;6.50;3.58;;;;;;;;;;5025118;28;20076;-69
2022/05/04 10:50:16;;;;;;;7.65;3.13;;;;;;;;;;5022092;28;20076;-70
2022/05/04 10:52:48;;;;;;;8.57;3.63;;;;;;;;;;5022721;28;20108;-70
2022/05/04 10:55:13;;;;;;;9.57;3.95;;;;;;;;;;5019882;28;20017;-69
2022/05/04 10:57:42;;;;;;;6.68;3.70;;;;;;;;;;5023629;28;20025;-68
2022/05/04 11:00:10;;;;;;;6.47;3.65;;;;;;;;;;5019552;28;20515;-70
2022/05/04 11:02:35;;;;;;;8.02;4.07;;;;;;;;;;5023348;28;20075;-68
2022/05/04 11:05:10;;;;;;;8.95;4.70;;;;;;;;;;5022948;28;20025;-70
2022/05/04 11:07:36;;;;;;;6.35;3.47;;;;;;;;;;5025499;28;20718;-70
2022/05/04 11:10:01;;;;;;;8.63;3.72;;;;;;;;;;5024645;28;20025;-68
2022/05/04 11:12:26;;;;;;;6.32;3.58;;;;;;;;;;5025525;28;20466;-68
2022/05/04 11:14:52;;;;;;;5.57;3.55;;;;;;;;;;5025094;28;20029;-69
2022/05/04 11:17:18;;;;;;;8.05;3.92;;;;;;;;;;5024650;28;20028;-68
2022/05/04 11:19:45;;;;;;;7.63;3.38;;;;;;;;;;5022381;28;20025;-70
2022/05/04 11:22:11;;;;;;;8.70;3.60;;;;;;;;;;5020860;28;20332;-71
2022/05/04 11:24:37;;;;;;;7.65;3.85;;;;;;;;;;5024778;28;20136;-70
2022/05/04 11:27:02;;;;;;;6.20;4.00;;;;;;;;;;5026055;28;20395;-71
2022/05/04 11:29:29;;;;;;;7.75;4.20;;;;;;;;;;5022322;28;20245;-69
2022/05/04 11:31:55;;;;;;;7.68;3.50;;;;;;;;;;5023695;28;20021;-69
2022/05/04 11:34:35;;;;;;;7.57;3.97;;;;;;;;;;5022121;28;20014;-70
2022/05/04 11:37:03;;;;;;;8.55;4.00;;;;;;;;;;5023435;28;20021;-69
2022/05/04 11:39:29;;;;;;;7.47;4.22;;;;;;;;;;5023535;28;20378;-69
2022/05/04 11:41:55;;;;;;;5.90;3.80;;;;;;;;;;5024758;28;20030;-70
2022/05/04 11:44:22;;;;;;;6.72;3.70;;;;;;;;;;5024291;28;20048;-69
2022/05/04 11:46:51;;;;;;;7.93;3.95;;;;;;;;;;5023777;28;20021;-69
2022/05/04 11:49:17;;;;;;;7.88;3.78;;;;;;;;;;5021930;28;20729;-69
2022/05/04 11:51:43;;;;;;;8.65;4.40;;;;;;;;;;5024617;28;20025;-73
2022/05/04 11:54:14;;;;;;;6.53;3.70;;;;;;;;;;5026902;28;20017;-74
2022/05/04 11:56:39;;;;;;;7.15;4.03;;;;;;;;;;5024331;28;20097;-74
2022/05/04 11:59:07;;;;;;;5.78;3.50;;;;;;;;;;5023273;28;20124;-74
2022/05/04 12:01:33;;;;;;;8.75;3.40;;;;;;;;;;5007000;28;20036;-73
2022/05/04 12:03:58;;;;;;;7.05;3.47;;;;;;;;;;5022413;28;20120;-73
2022/05/04 12:06:24;;;;;;;4.47;3.17;;;;;;;;;;5024545;28;20029;-73
2022/05/04 12:08:50;;;;;;;11.38;4.50;;;;;;;;;;5029067;28;20021;-73
2022/05/04 12:11:16;;;;;;;6.50;3.95;;;;;;;;;;5029129;28;20083;-73
2022/05/04 12:13:42;;;;;;;7.82;4.13;;;;;;;;;;5025822;28;20025;-74
2022/05/04 12:16:08;;;;;;;7.82;4.15;;;;;;;;;;5026427;28;20030;-74
2022/05/04 12:18:35;;;;;;;6.97;3.95;;;;;;;;;;5021537;28;20029;-73
2022/05/04 12:21:04;;;;;;;6.82;4.13;;;;;;;;;;5025575;28;20017;-74
2022/05/04 12:23:29;;;;;;;7.53;4.38;;;;;;;;;;5025051;28;20029;-74
2022/05/04 12:25:54;;;;;;;7.35;4.63;;;;;;;;;;5024573;28;20049;-73
2022/05/04 12:28:23;;;;;;;10.13;4.15;;;;;;;;;;5025984;28;20070;-72
2022/05/04 12:33:33;;;;;;;10.75;4.50;;;;;;;;;;5023686;28;20498;-73
2022/05/04 12:36:00;;;;;;;7.13;3.78;;;;;;;;;;5026065;28;20056;-73
2022/05/04 12:38:26;;;;;;;11.70;4.60;;;;;;;;;;5027442;28;20056;-73
2022/05/04 12:40:52;;;;;;;8.13;4.40;;;;;;;;;;5026194;28;20282;-73
2022/05/04 12:43:18;;;;;;;7.15;3.97;;;;;;;;;;5026167;28;20035;-72
2022/05/04 12:45:43;;;;;;;8.65;4.35;;;;;;;;;;5025460;28;20124;-72
2022/05/04 12:48:09;;;;;;;8.63;3.90;;;;;;;;;;5024704;28;20026;-72
2022/05/04 12:50:35;;;;;;;7.63;3.90;;;;;;;;;;5024635;28;20386;-72
2022/05/04 12:53:00;;;;;;;10.40;4.07;;;;;;;;;;5027797;28;20468;-72
2022/05/04 12:58:10;;;;;;;6.07;4.20;;;;;;;;;;5027119;28;20033;-72
2022/05/04 13:00:36;;;;;;;9.27;4.28;;;;;;;;;;5021387;28;20675;-74
2022/05/04 13:03:02;;;;;;;7.15;4.40;;;;;;;;;;5024379;28;20037;-73
2022/05/04 13:05:28;;;;;;;5.68;4.00;;;;;;;;;;5021190;28;20021;-73
2022/05/04 13:07:53;;;;;;;8.00;4.45;;;;;;;;;;5024413;28;20075;-73
2022/05/04 13:10:19;;;;;;;7.50;4.03;;;;;;;;;;5024718;28;20032;-73
2022/05/04 13:12:44;;;;;;;7.30;3.97;;;;;;;;;;5024862;28;20460;-73
2022/05/04 13:15:10;;;;;;;9.15;4.40;;;;;;;;;;5025283;28;20529;-74
2022/05/04 13:17:35;;;;;;;11.15;4.20;;;;;;;;;;5026197;28;20431;-73
2022/05/04 13:20:00;;;;;;;10.07;4.93;;;;;;;;;;5021711;28;20025;-73
2022/05/04 13:22:26;;;;;;;7.68;4.18;;;;;;;;;;5022200;28;20025;-73
2022/05/04 13:24:57;;;;;;;9.18;5.00;;;;;;;;;;5023356;28;20076;-74
2022/05/04 13:27:22;;;;;;;6.55;3.90;;;;;;;;;;5022461;28;20028;-74
2022/05/04 13:29:51;;;;;;;15.45;4.80;;;;;;;;;;5023139;28;20017;-71
2022/05/04 13:32:18;;;;;;;7.32;4.20;;;;;;;;;;5007105;28;20049;-73
2022/05/04 13:34:43;;;;;;;10.10;4.70;;;;;;;;;;5004493;28;20411;-73
2022/05/04 13:37:09;;;;;;;9.48;4.30;;;;;;;;;;5021115;28;20020;-71
2022/05/04 13:39:34;;;;;;;9.82;3.95;;;;;;;;;;5020297;28;20767;-73
2022/05/04 13:41:59;;;;;;;6.97;4.35;;;;;;;;;;5022169;28;20021;-73
2022/05/04 13:44:25;;;;;;;7.30;3.83;;;;;;;;;;5022204;28;20022;-74
2022/05/04 13:46:50;;;;;;;7.47;3.70;;;;;;;;;;5023202;28;20359;-74
2022/05/04 13:49:16;;;;;;;7.05;4.30;;;;;;;;;;5023398;28;20033;-73
2022/05/04 13:54:26;;;;;;;6.63;4.10;;;;;;;;;;5022277;28;20044;-73
2022/05/04 13:56:52;;;;;;;11.55;4.03;;;;;;;;;;5022210;28;20041;-74
2022/05/04 13:59:20;;;;;;;10.45;3.67;;;;;;;;;;5014304;28;20026;-74
2022/05/04 14:01:46;;;;;;;7.75;3.95;;;;;;;;;;5015669;28;20924;-73
2022/05/04 14:04:12;;;;;;;8.10;3.38;;;;;;;;;;5020618;28;20032;-72
2022/05/04 14:06:38;;;;;;;12.38;3.58;;;;;;;;;;5016051;28;20080;-75
2022/05/04 14:09:03;;;;;;;7.03;3.40;;;;;;;;;;5025011;28;20060;-74
2022/05/04 14:11:28;;;;;;;5.93;3.67;;;;;;;;;;5022690;28;20028;-72
2022/05/04 14:15:01;;;;;;;7.05;3.40;;;;;;;;;;5024605;28;20026;-73
2022/05/04 14:16:39;;;;;;;5.63;3.70;;;;;;;;;;5020136;28;20040;-73
2022/05/04 14:19:04;;;;;;;5.53;3.38;;;;;;;;;;5023056;28;20021;-72
2022/05/04 14:21:29;;;;;;;6.60;3.13;;;;;;;;;;5017165;28;20029;-72
2022/05/04 14:23:55;;;;;;;8.07;3.72;;;;;;;;;;5024378;28;20445;-72
2022/05/04 14:26:21;;;;;;;6.70;3.20;;;;;;;;;;5023951;28;20033;-73
2022/05/04 14:28:47;;;;;;;6.35;3.45;;;;;;;;;;5011856;28;20084;-74
2022/05/04 14:31:12;;;;;;;7.78;3.55;;;;;;;;;;5028612;28;20398;-72
2022/05/04 14:33:38;;;;;;;6.00;3.42;;;;;;;;;;5013931;28;20108;-73
2022/05/04 14:36:03;;;;;;;5.88;2.90;;;;;;;;;;5019931;28;20087;-74
2022/05/04 14:38:28;;;;;;;6.00;3.22;;;;;;;;;;5020120;28;20055;-74
2022/05/04 14:40:54;;;;;;;6.05;3.15;;;;;;;;;;5021529;28;20025;-73
2022/05/04 14:43:23;;;;;;;7.63;3.28;;;;;;;;;;5025104;28;20445;-74
2022/05/04 14:45:49;;;;;;;6.38;3.33;;;;;;;;;;5003647;28;20044;-73
2022/05/04 14:48:14;;;;;;;4.50;3.13;;;;;;;;;;5023247;28;20021;-74
2022/05/04 14:50:39;;;;;;;6.20;3.03;;;;;;;;;;5016890;28;20095;-73
2022/05/04 14:53:04;;;;;;;7.32;2.20;;;;;;;;;;5023896;28;20045;-74
2022/05/04 14:55:30;;;;;;;6.70;2.75;;;;;;;;;;5021541;28;20022;-73
2022/05/04 14:57:55;;;;;;;5.07;2.20;;;;;;;;;;5023561;28;20067;-72
2022/05/04 15:00:22;;;;;;;5.85;2.47;;;;;;;;;;5018367;28;20040;-72
2022/05/04 15:05:32;;;;;;;6.38;2.38;;;;;;;;;;5017968;28;20769;-74
2022/05/04 15:07:57;;;;;;;5.18;2.63;;;;;;;;;;5023090;28;20045;-73
2022/05/04 15:10:23;;;;;;;6.47;2.78;;;;;;;;;;5022338;28;20036;-75
2022/05/04 15:12:49;;;;;;;4.53;2.53;;;;;;;;;;5019519;28;20049;-73
2022/05/04 15:15:14;;;;;;;9.05;3.65;;;;;;;;;;5018846;28;20229;-73
2022/05/04 15:17:39;;;;;;;5.50;2.45;;;;;;;;;;5020089;28;20125;-73